sensor_id;sensor_type;location;lat;lon;timestamp;P1;durP1;ratioP1;P2;durP2;ratioP2
71095;SDS011;58753;49.440;11.126;2022-07-30T00:00:31;8.43;;;4.70;;
71095;SDS011;58753;49.440;11.126;2022-07-30T00:05:30;7.95;;;5.10;;
71095;SDS011;58753;49.440;11.126;2022-07-30T00:07:55;10.27;;;4.75;;
71095;SDS011;58753;49.440;11.126;2022-07-30T00:10:20;11.53;;;5.17;;
71095;SDS011;58753;49.440;11.126;2022-07-30T00:12:47;7.65;;;5.07;;
71095;SDS011;58753;49.440;11.126;2022-07-30T00:22:54;9.60;;;5.80;;
71095;SDS011;58753;49.440;11.126;2022-07-30T00:25:20;7.40;;;4.65;;
71095;SDS011;58753;49.440;11.126;2022-07-30T00:27:45;8.30;;;4.77;;
71095;SDS011;58753;49.440;11.126;2022-07-30T00:30:11;8.50;;;5.27;;
71095;SDS011;58753;49.440;11.126;2022-07-30T00:36:06;8.07;;;4.47;;
71095;SDS011;58753;49.440;11.126;2022-07-30T00:38:31;8.17;;;5.07;;
71095;SDS011;58753;49.440;11.126;2022-07-30T00:43:22;10.55;;;5.55;;
71095;SDS011;58753;49.440;11.126;2022-07-30T00:51:22;10.07;;;5.45;;
71095;SDS011;58753;49.440;11.126;2022-07-30T00:53:47;9.07;;;5.20;;
71095;SDS011;58753;49.440;11.126;2022-07-30T00:56:12;7.30;;;4.90;;
71095;SDS011;58753;49.440;11.126;2022-07-30T01:01:03;8.50;;;5.47;;
71095;SDS011;58753;49.440;11.126;2022-07-30T01:11:16;11.05;;;5.57;;
71095;SDS011;58753;49.440;11.126;2022-07-30T01:13:42;11.18;;;6.18;;
71095;SDS011;58753;49.440;11.126;2022-07-30T01:18:34;10.20;;;5.78;;
71095;SDS011;58753;49.440;11.126;2022-07-30T01:21:21;8.80;;;5.93;;
71095;SDS011;58753;49.440;11.126;2022-07-30T01:24:03;8.13;;;5.03;;
71095;SDS011;58753;49.440;11.126;2022-07-30T01:26:38;8.02;;;5.25;;
71095;SDS011;58753;49.440;11.126;2022-07-30T01:29:04;8.18;;;4.80;;
71095;SDS011;58753;49.440;11.126;2022-07-30T01:31:30;9.65;;;4.70;;
71095;SDS011;58753;49.440;11.126;2022-07-30T01:36:30;7.90;;;4.97;;
71095;SDS011;58753;49.440;11.126;2022-07-30T01:38:56;27.50;;;13.68;;
71095;SDS011;58753;49.440;11.126;2022-07-30T01:41:23;13.98;;;8.57;;
71095;SDS011;58753;49.440;11.126;2022-07-30T01:46:15;10.48;;;4.82;;
71095;SDS011;58753;49.440;11.126;2022-07-30T01:53:54;7.50;;;4.83;;
71095;SDS011;58753;49.440;11.126;2022-07-30T01:58:47;9.32;;;5.88;;
71095;SDS011;58753;49.440;11.126;2022-07-30T02:01:14;8.60;;;5.10;;
71095;SDS011;58753;49.440;11.126;2022-07-30T02:19:23;10.87;;;5.20;;
71095;SDS011;58753;49.440;11.126;2022-07-30T02:24:18;7.82;;;5.07;;
71095;SDS011;58753;49.440;11.126;2022-07-30T02:37:48;8.27;;;4.63;;
71095;SDS011;58753;49.440;11.126;2022-07-30T02:40:16;8.50;;;4.80;;
71095;SDS011;58753;49.440;11.126;2022-07-30T02:42:44;7.72;;;4.72;;
71095;SDS011;58753;49.440;11.126;2022-07-30T02:45:14;8.43;;;4.82;;
71095;SDS011;58753;49.440;11.126;2022-07-30T02:52:58;10.45;;;4.80;;
71095;SDS011;58753;49.440;11.126;2022-07-30T02:55:25;8.75;;;4.35;;
71095;SDS011;58753;49.440;11.126;2022-07-30T03:00:19;6.43;;;4.03;;
71095;SDS011;58753;49.440;11.126;2022-07-30T03:15:32;8.45;;;4.25;;
71095;SDS011;58753;49.440;11.126;2022-07-30T03:20:27;7.28;;;4.40;;
71095;SDS011;58753;49.440;11.126;2022-07-30T03:22:54;7.57;;;4.30;;
71095;SDS011;58753;49.440;11.126;2022-07-30T03:25:23;9.00;;;4.25;;
71095;SDS011;58753;49.440;11.126;2022-07-30T03:44:00;5.47;;;3.72;;
71095;SDS011;58753;49.440;11.126;2022-07-30T03:46:26;6.22;;;3.53;;
71095;SDS011;58753;49.440;11.126;2022-07-30T03:51:17;6.70;;;4.32;;
71095;SDS011;58753;49.440;11.126;2022-07-30T03:58:55;6.47;;;3.60;;
71095;SDS011;58753;49.440;11.126;2022-07-30T04:01:24;8.07;;;4.40;;
71095;SDS011;58753;49.440;11.126;2022-07-30T04:03:50;8.97;;;4.57;;
71095;SDS011;58753;49.440;11.126;2022-07-30T04:06:16;10.60;;;4.82;;
71095;SDS011;58753;49.440;11.126;2022-07-30T04:14:41;10.40;;;6.18;;
71095;SDS011;58753;49.440;11.126;2022-07-30T04:17:11;17.45;;;8.07;;
71095;SDS011;58753;49.440;11.126;2022-07-30T04:19:52;19.30;;;10.60;;
71095;SDS011;58753;49.440;11.126;2022-07-30T04:22:29;19.20;;;9.88;;
71095;SDS011;58753;49.440;11.126;2022-07-30T04:24:57;21.80;;;10.90;;
71095;SDS011;58753;49.440;11.126;2022-07-30T04:27:25;19.98;;;11.43;;
71095;SDS011;58753;49.440;11.126;2022-07-30T04:29:51;24.65;;;11.70;;
71095;SDS011;58753;49.440;11.126;2022-07-30T04:32:20;19.57;;;11.33;;
71095;SDS011;58753;49.440;11.126;2022-07-30T04:34:50;23.70;;;11.88;;
71095;SDS011;58753;49.440;11.126;2022-07-30T04:45:56;18.23;;;11.67;;
71095;SDS011;58753;49.440;11.126;2022-07-30T04:48:22;20.88;;;10.68;;
71095;SDS011;58753;49.440;11.126;2022-07-30T05:00:31;21.73;;;12.15;;
71095;SDS011;58753;49.440;11.126;2022-07-30T05:05:24;23.50;;;12.70;;
71095;SDS011;58753;49.440;11.126;2022-07-30T05:07:51;23.17;;;12.13;;
71095;SDS011;58753;49.440;11.126;2022-07-30T05:16:13;18.63;;;10.73;;
71095;SDS011;58753;49.440;11.126;2022-07-30T05:18:39;20.02;;;10.52;;
71095;SDS011;58753;49.440;11.126;2022-07-30T05:21:05;19.25;;;10.30;;
71095;SDS011;58753;49.440;11.126;2022-07-30T05:23:31;18.07;;;10.57;;
71095;SDS011;58753;49.440;11.126;2022-07-30T05:29:05;17.63;;;9.93;;
71095;SDS011;58753;49.440;11.126;2022-07-30T05:31:31;19.15;;;10.55;;
71095;SDS011;58753;49.440;11.126;2022-07-30T05:33:56;18.63;;;10.30;;
71095;SDS011;58753;49.440;11.126;2022-07-30T05:36:22;18.73;;;10.27;;
71095;SDS011;58753;49.440;11.126;2022-07-30T05:43:56;19.30;;;10.63;;
71095;SDS011;58753;49.440;11.126;2022-07-30T05:46:21;18.98;;;10.82;;
71095;SDS011;58753;49.440;11.126;2022-07-30T05:48:47;18.70;;;10.97;;
71095;SDS011;58753;49.440;11.126;2022-07-30T05:51:13;17.88;;;10.02;;
71095;SDS011;58753;49.440;11.126;2022-07-30T05:57:08;23.10;;;12.20;;
71095;SDS011;58753;49.440;11.126;2022-07-30T05:59:33;25.27;;;12.67;;
71095;SDS011;58753;49.440;11.126;2022-07-30T06:01:59;25.37;;;13.10;;
71095;SDS011;58753;49.440;11.126;2022-07-30T06:04:25;22.25;;;11.90;;
71095;SDS011;58753;49.440;11.126;2022-07-30T06:17:04;26.05;;;12.43;;
71095;SDS011;58753;49.440;11.126;2022-07-30T06:19:29;24.20;;;11.63;;
71095;SDS011;58753;49.440;11.126;2022-07-30T06:21:55;21.70;;;11.93;;
71095;SDS011;58753;49.440;11.126;2022-07-30T06:24:20;26.23;;;12.27;;
71095;SDS011;58753;49.440;11.126;2022-07-30T06:26:46;22.15;;;12.32;;
71095;SDS011;58753;49.440;11.126;2022-07-30T06:29:11;24.27;;;11.93;;
71095;SDS011;58753;49.440;11.126;2022-07-30T06:31:37;22.40;;;11.67;;
71095;SDS011;58753;49.440;11.126;2022-07-30T06:36:29;16.70;;;9.20;;
71095;SDS011;58753;49.440;11.126;2022-07-30T06:38:55;16.77;;;10.33;;
71095;SDS011;58753;49.440;11.126;2022-07-30T06:41:20;21.13;;;9.38;;
71095;SDS011;58753;49.440;11.126;2022-07-30T06:49:09;12.43;;;7.88;;
71095;SDS011;58753;49.440;11.126;2022-07-30T06:51:34;15.00;;;7.43;;
71095;SDS011;58753;49.440;11.126;2022-07-30T06:53:59;8.87;;;6.13;;
71095;SDS011;58753;49.440;11.126;2022-07-30T06:56:25;11.30;;;6.20;;
71095;SDS011;58753;49.440;11.126;2022-07-30T06:58:50;7.20;;;4.70;;
71095;SDS011;58753;49.440;11.126;2022-07-30T07:01:15;12.67;;;7.27;;
71095;SDS011;58753;49.440;11.126;2022-07-30T07:03:41;13.73;;;7.50;;
71095;SDS011;58753;49.440;11.126;2022-07-30T07:06:06;10.10;;;5.30;;
71095;SDS011;58753;49.440;11.126;2022-07-30T07:14:32;8.83;;;5.17;;
71095;SDS011;58753;49.440;11.126;2022-07-30T07:16:58;9.05;;;4.90;;
71095;SDS011;58753;49.440;11.126;2022-07-30T07:19:23;8.90;;;4.80;;
71095;SDS011;58753;49.440;11.126;2022-07-30T07:21:49;8.20;;;5.20;;
71095;SDS011;58753;49.440;11.126;2022-07-30T07:26:39;9.32;;;5.22;;
71095;SDS011;58753;49.440;11.126;2022-07-30T07:29:05;11.03;;;5.00;;
71095;SDS011;58753;49.440;11.126;2022-07-30T07:33:55;9.27;;;4.33;;
71095;SDS011;58753;49.440;11.126;2022-07-30T07:36:21;6.23;;;3.80;;
71095;SDS011;58753;49.440;11.126;2022-07-30T07:38:46;8.27;;;3.67;;
71095;SDS011;58753;49.440;11.126;2022-07-30T07:43:58;7.35;;;3.28;;
71095;SDS011;58753;49.440;11.126;2022-07-30T07:46:23;5.40;;;3.23;;
71095;SDS011;58753;49.440;11.126;2022-07-30T07:48:48;7.70;;;4.13;;
71095;SDS011;58753;49.440;11.126;2022-07-30T07:51:14;7.53;;;3.83;;
71095;SDS011;58753;49.440;11.126;2022-07-30T08:01:58;7.60;;;4.25;;
71095;SDS011;58753;49.440;11.126;2022-07-30T08:04:23;7.53;;;4.07;;
71095;SDS011;58753;49.440;11.126;2022-07-30T08:06:49;7.03;;;3.57;;
71095;SDS011;58753;49.440;11.126;2022-07-30T08:09:14;6.40;;;3.70;;
71095;SDS011;58753;49.440;11.126;2022-07-30T08:11:40;8.45;;;3.95;;
71095;SDS011;58753;49.440;11.126;2022-07-30T08:14:05;6.33;;;3.50;;
71095;SDS011;58753;49.440;11.126;2022-07-30T08:16:30;7.23;;;3.70;;
71095;SDS011;58753;49.440;11.126;2022-07-30T08:21:21;6.37;;;3.23;;
71095;SDS011;58753;49.440;11.126;2022-07-30T08:29:57;6.03;;;3.20;;
71095;SDS011;58753;49.440;11.126;2022-07-30T08:32:23;5.22;;;2.80;;
71095;SDS011;58753;49.440;11.126;2022-07-30T08:34:48;4.53;;;2.40;;
71095;SDS011;58753;49.440;11.126;2022-07-30T08:37:13;4.83;;;2.60;;
71095;SDS011;58753;49.440;11.126;2022-07-30T08:39:39;6.00;;;3.50;;
71095;SDS011;58753;49.440;11.126;2022-07-30T08:42:05;5.55;;;3.13;;
71095;SDS011;58753;49.440;11.126;2022-07-30T08:44:31;6.23;;;3.80;;
71095;SDS011;58753;49.440;11.126;2022-07-30T08:46:57;4.53;;;2.88;;
71095;SDS011;58753;49.440;11.126;2022-07-30T08:49:23;5.45;;;3.22;;
71095;SDS011;58753;49.440;11.126;2022-07-30T08:51:50;4.75;;;2.78;;
71095;SDS011;58753;49.440;11.126;2022-07-30T08:54:19;4.95;;;2.50;;
71095;SDS011;58753;49.440;11.126;2022-07-30T08:56:44;5.67;;;3.43;;
71095;SDS011;58753;49.440;11.126;2022-07-30T09:14:05;6.10;;;3.53;;
71095;SDS011;58753;49.440;11.126;2022-07-30T09:16:32;5.20;;;2.90;;
71095;SDS011;58753;49.440;11.126;2022-07-30T09:18:57;4.60;;;3.10;;
71095;SDS011;58753;49.440;11.126;2022-07-30T09:21:36;5.80;;;3.30;;
71095;SDS011;58753;49.440;11.126;2022-07-30T09:26:33;6.47;;;3.20;;
71095;SDS011;58753;49.440;11.126;2022-07-30T09:29:24;6.38;;;3.08;;
71095;SDS011;58753;49.440;11.126;2022-07-30T09:31:51;5.07;;;2.95;;
71095;SDS011;58753;49.440;11.126;2022-07-30T09:34:37;19.75;;;9.10;;
71095;SDS011;58753;49.440;11.126;2022-07-30T09:54:53;3.20;;;2.20;;
71095;SDS011;58753;49.440;11.126;2022-07-30T10:02:09;3.17;;;2.30;;
71095;SDS011;58753;49.440;11.126;2022-07-30T10:04:35;4.03;;;2.40;;
71095;SDS011;58753;49.440;11.126;2022-07-30T10:07:01;4.30;;;2.83;;
71095;SDS011;58753;49.440;11.126;2022-07-30T10:09:28;4.05;;;2.50;;
71095;SDS011;58753;49.440;11.126;2022-07-30T10:11:54;3.72;;;2.33;;
71095;SDS011;58753;49.440;11.126;2022-07-30T10:14:21;3.75;;;2.50;;
71095;SDS011;58753;49.440;11.126;2022-07-30T10:16:48;3.80;;;1.90;;
71095;SDS011;58753;49.440;11.126;2022-07-30T10:19:14;3.00;;;2.33;;
71095;SDS011;58753;49.440;11.126;2022-07-30T10:21:41;3.15;;;2.17;;
71095;SDS011;58753;49.440;11.126;2022-07-30T10:26:55;3.38;;;2.28;;
71095;SDS011;58753;49.440;11.126;2022-07-30T10:31:46;3.20;;;1.88;;
71095;SDS011;58753;49.440;11.126;2022-07-30T10:34:13;3.42;;;2.10;;
71095;SDS011;58753;49.440;11.126;2022-07-30T10:36:43;3.50;;;2.08;;
71095;SDS011;58753;49.440;11.126;2022-07-30T10:45:02;3.67;;;2.38;;
71095;SDS011;58753;49.440;11.126;2022-07-30T10:47:35;2.30;;;1.73;;
71095;SDS011;58753;49.440;11.126;2022-07-30T10:50:12;5.97;;;2.30;;
71095;SDS011;58753;49.440;11.126;2022-07-30T10:55:30;3.47;;;1.77;;
71095;SDS011;58753;49.440;11.126;2022-07-30T10:58:02;3.65;;;2.20;;
71095;SDS011;58753;49.440;11.126;2022-07-30T11:00:29;6.70;;;2.30;;
71095;SDS011;58753;49.440;11.126;2022-07-30T11:03:16;2.63;;;1.92;;
71095;SDS011;58753;49.440;11.126;2022-07-30T11:05:44;4.03;;;2.50;;
71095;SDS011;58753;49.440;11.126;2022-07-30T11:08:27;2.87;;;2.03;;
71095;SDS011;58753;49.440;11.126;2022-07-30T11:10:52;5.47;;;2.22;;
71095;SDS011;58753;49.440;11.126;2022-07-30T11:13:18;4.00;;;1.80;;
71095;SDS011;58753;49.440;11.126;2022-07-30T11:16:19;3.00;;;2.00;;
71095;SDS011;58753;49.440;11.126;2022-07-30T11:21:40;4.67;;;1.63;;
71095;SDS011;58753;49.440;11.126;2022-07-30T11:24:07;3.38;;;1.75;;
71095;SDS011;58753;49.440;11.126;2022-07-30T11:30:29;4.35;;;2.38;;
71095;SDS011;58753;49.440;11.126;2022-07-30T11:33:39;4.25;;;2.70;;
71095;SDS011;58753;49.440;11.126;2022-07-30T11:35:39;3.90;;;2.05;;
71095;SDS011;58753;49.440;11.126;2022-07-30T11:48:54;2.70;;;2.10;;
71095;SDS011;58753;49.440;11.126;2022-07-30T11:51:25;5.65;;;2.40;;
71095;SDS011;58753;49.440;11.126;2022-07-30T11:54:01;2.90;;;2.00;;
71095;SDS011;58753;49.440;11.126;2022-07-30T11:56:30;4.55;;;1.88;;
71095;SDS011;58753;49.440;11.126;2022-07-30T11:58:59;3.83;;;1.90;;
71095;SDS011;58753;49.440;11.126;2022-07-30T12:01:26;3.75;;;2.30;;
71095;SDS011;58753;49.440;11.126;2022-07-30T12:03:52;3.00;;;1.93;;
71095;SDS011;58753;49.440;11.126;2022-07-30T12:06:17;2.83;;;1.80;;
71095;SDS011;58753;49.440;11.126;2022-07-30T12:08:44;3.30;;;1.60;;
71095;SDS011;58753;49.440;11.126;2022-07-30T12:11:11;3.08;;;1.88;;
71095;SDS011;58753;49.440;11.126;2022-07-30T12:13:37;3.35;;;1.73;;
71095;SDS011;58753;49.440;11.126;2022-07-30T12:16:07;4.63;;;1.90;;
71095;SDS011;58753;49.440;11.126;2022-07-30T12:18:33;3.22;;;2.08;;
71095;SDS011;58753;49.440;11.126;2022-07-30T12:31:31;3.10;;;2.25;;
71095;SDS011;58753;49.440;11.126;2022-07-30T12:33:57;4.28;;;2.40;;
71095;SDS011;58753;49.440;11.126;2022-07-30T12:36:31;11.48;;;2.42;;
71095;SDS011;58753;49.440;11.126;2022-07-30T12:38:58;3.28;;;2.28;;
71095;SDS011;58753;49.440;11.126;2022-07-30T12:41:44;5.07;;;2.88;;
71095;SDS011;58753;49.440;11.126;2022-07-30T12:47:05;5.50;;;2.80;;
71095;SDS011;58753;49.440;11.126;2022-07-30T12:52:07;6.93;;;3.78;;
71095;SDS011;58753;49.440;11.126;2022-07-30T12:54:32;6.00;;;3.40;;
71095;SDS011;58753;49.440;11.126;2022-07-30T12:57:02;6.17;;;3.77;;
71095;SDS011;58753;49.440;11.126;2022-07-30T12:59:29;6.13;;;3.95;;
71095;SDS011;58753;49.440;11.126;2022-07-30T13:01:55;6.32;;;3.70;;
71095;SDS011;58753;49.440;11.126;2022-07-30T13:17:17;6.90;;;2.92;;
71095;SDS011;58753;49.440;11.126;2022-07-30T13:19:43;4.00;;;2.90;;
71095;SDS011;58753;49.440;11.126;2022-07-30T13:22:09;6.50;;;2.58;;
71095;SDS011;58753;49.440;11.126;2022-07-30T13:24:34;4.80;;;2.37;;
71095;SDS011;58753;49.440;11.126;2022-07-30T13:27:00;4.47;;;2.38;;
71095;SDS011;58753;49.440;11.126;2022-07-30T13:29:25;7.10;;;2.60;;
71095;SDS011;58753;49.440;11.126;2022-07-30T13:31:50;4.83;;;2.07;;
71095;SDS011;58753;49.440;11.126;2022-07-30T13:34:16;4.45;;;2.03;;
71095;SDS011;58753;49.440;11.126;2022-07-30T13:36:42;4.83;;;2.10;;
71095;SDS011;58753;49.440;11.126;2022-07-30T13:39:07;3.70;;;1.97;;
71095;SDS011;58753;49.440;11.126;2022-07-30T13:48:11;3.90;;;1.80;;
71095;SDS011;58753;49.440;11.126;2022-07-30T13:50:37;3.78;;;1.73;;
71095;SDS011;58753;49.440;11.126;2022-07-30T13:53:03;4.00;;;1.50;;
71095;SDS011;58753;49.440;11.126;2022-07-30T14:00:57;2.97;;;1.40;;
71095;SDS011;58753;49.440;11.126;2022-07-30T14:03:22;2.45;;;1.55;;
71095;SDS011;58753;49.440;11.126;2022-07-30T14:05:48;2.77;;;1.70;;
71095;SDS011;58753;49.440;11.126;2022-07-30T14:08:13;3.47;;;1.43;;
71095;SDS011;58753;49.440;11.126;2022-07-30T14:10:39;6.00;;;1.58;;
71095;SDS011;58753;49.440;11.126;2022-07-30T14:13:05;4.10;;;1.87;;
71095;SDS011;58753;49.440;11.126;2022-07-30T14:15:31;3.55;;;1.88;;
71095;SDS011;58753;49.440;11.126;2022-07-30T14:17:58;2.83;;;1.30;;
71095;SDS011;58753;49.440;11.126;2022-07-30T14:20:24;5.75;;;1.45;;
71095;SDS011;58753;49.440;11.126;2022-07-30T14:27:58;3.60;;;1.40;;
71095;SDS011;58753;49.440;11.126;2022-07-30T14:30:23;2.67;;;1.20;;
71095;SDS011;58753;49.440;11.126;2022-07-30T14:32:49;2.60;;;1.40;;
71095;SDS011;58753;49.440;11.126;2022-07-30T14:35:14;2.78;;;1.40;;
71095;SDS011;58753;49.440;11.126;2022-07-30T14:37:40;2.80;;;1.80;;
71095;SDS011;58753;49.440;11.126;2022-07-30T14:40:06;3.07;;;1.50;;
71095;SDS011;58753;49.440;11.126;2022-07-30T14:42:33;3.63;;;1.70;;
71095;SDS011;58753;49.440;11.126;2022-07-30T14:45:00;2.65;;;1.60;;
71095;SDS011;58753;49.440;11.126;2022-07-30T14:58:57;2.65;;;1.60;;
71095;SDS011;58753;49.440;11.126;2022-07-30T15:01:22;2.87;;;1.40;;
71095;SDS011;58753;49.440;11.126;2022-07-30T15:03:48;3.27;;;1.90;;
71095;SDS011;58753;49.440;11.126;2022-07-30T15:06:13;2.47;;;1.65;;
71095;SDS011;58753;49.440;11.126;2022-07-30T15:13:56;3.97;;;1.80;;
71095;SDS011;58753;49.440;11.126;2022-07-30T15:16:21;3.10;;;1.38;;
71095;SDS011;58753;49.440;11.126;2022-07-30T15:18:46;2.77;;;1.63;;
71095;SDS011;58753;49.440;11.126;2022-07-30T15:21:12;3.27;;;2.07;;
71095;SDS011;58753;49.440;11.126;2022-07-30T15:28:28;2.60;;;1.67;;
71095;SDS011;58753;49.440;11.126;2022-07-30T15:30:53;2.70;;;1.80;;
71095;SDS011;58753;49.440;11.126;2022-07-30T15:33:19;3.85;;;2.00;;
71095;SDS011;58753;49.440;11.126;2022-07-30T15:35:45;3.38;;;1.80;;
71095;SDS011;58753;49.440;11.126;2022-07-30T15:45:33;6.60;;;2.03;;
71095;SDS011;58753;49.440;11.126;2022-07-30T15:47:58;5.07;;;2.10;;
71095;SDS011;58753;49.440;11.126;2022-07-30T15:50:23;3.40;;;2.15;;
71095;SDS011;58753;49.440;11.126;2022-07-30T15:52:49;4.57;;;1.80;;
71095;SDS011;58753;49.440;11.126;2022-07-30T15:57:40;6.28;;;2.33;;
71095;SDS011;58753;49.440;11.126;2022-07-30T16:00:06;3.53;;;2.15;;
71095;SDS011;58753;49.440;11.126;2022-07-30T16:08:02;3.53;;;2.10;;
71095;SDS011;58753;49.440;11.126;2022-07-30T16:12:52;4.88;;;2.13;;
71095;SDS011;58753;49.440;11.126;2022-07-30T16:15:18;2.73;;;2.03;;
71095;SDS011;58753;49.440;11.126;2022-07-30T16:17:43;3.45;;;2.30;;
71095;SDS011;58753;49.440;11.126;2022-07-30T16:20:09;4.13;;;2.00;;
71095;SDS011;58753;49.440;11.126;2022-07-30T16:22:34;3.73;;;2.23;;
71095;SDS011;58753;49.440;11.126;2022-07-30T16:25:00;4.45;;;2.03;;
71095;SDS011;58753;49.440;11.126;2022-07-30T16:27:25;3.33;;;1.77;;
71095;SDS011;58753;49.440;11.126;2022-07-30T16:29:51;3.20;;;1.92;;
71095;SDS011;58753;49.440;11.126;2022-07-30T16:32:16;3.63;;;2.20;;
71095;SDS011;58753;49.440;11.126;2022-07-30T16:34:42;2.67;;;2.23;;
71095;SDS011;58753;49.440;11.126;2022-07-30T16:37:07;3.05;;;2.20;;
71095;SDS011;58753;49.440;11.126;2022-07-30T16:39:33;3.13;;;1.90;;
71095;SDS011;58753;49.440;11.126;2022-07-30T16:41:58;3.05;;;1.70;;
71095;SDS011;58753;49.440;11.126;2022-07-30T16:44:24;2.63;;;1.70;;
71095;SDS011;58753;49.440;11.126;2022-07-30T16:46:51;2.40;;;1.33;;
71095;SDS011;58753;49.440;11.126;2022-07-30T16:49:16;2.73;;;1.70;;
71095;SDS011;58753;49.440;11.126;2022-07-30T16:51:41;2.83;;;1.67;;
71095;SDS011;58753;49.440;11.126;2022-07-30T16:54:07;2.58;;;2.08;;
71095;SDS011;58753;49.440;11.126;2022-07-30T16:56:33;3.85;;;1.60;;
71095;SDS011;58753;49.440;11.126;2022-07-30T16:58:59;3.37;;;1.60;;
71095;SDS011;58753;49.440;11.126;2022-07-30T17:01:24;2.73;;;1.73;;
71095;SDS011;58753;49.440;11.126;2022-07-30T17:03:49;2.80;;;1.73;;
71095;SDS011;58753;49.440;11.126;2022-07-30T17:06:15;5.43;;;2.20;;
71095;SDS011;58753;49.440;11.126;2022-07-30T17:08:40;2.83;;;1.70;;
71095;SDS011;58753;49.440;11.126;2022-07-30T17:11:06;3.00;;;1.93;;
71095;SDS011;58753;49.440;11.126;2022-07-30T17:13:31;3.20;;;1.75;;
71095;SDS011;58753;49.440;11.126;2022-07-30T17:15:58;3.63;;;1.87;;
71095;SDS011;58753;49.440;11.126;2022-07-30T17:18:24;3.07;;;2.07;;
71095;SDS011;58753;49.440;11.126;2022-07-30T17:20:49;4.93;;;2.60;;
71095;SDS011;58753;49.440;11.126;2022-07-30T17:23:15;4.20;;;1.87;;
71095;SDS011;58753;49.440;11.126;2022-07-30T17:25:41;2.77;;;1.63;;
71095;SDS011;58753;49.440;11.126;2022-07-30T17:28:06;3.47;;;1.70;;
71095;SDS011;58753;49.440;11.126;2022-07-30T17:30:31;3.90;;;1.53;;
71095;SDS011;58753;49.440;11.126;2022-07-30T17:32:57;3.75;;;1.80;;
71095;SDS011;58753;49.440;11.126;2022-07-30T17:35:22;3.33;;;2.10;;
71095;SDS011;58753;49.440;11.126;2022-07-30T17:37:48;5.30;;;1.73;;
71095;SDS011;58753;49.440;11.126;2022-07-30T17:40:14;2.20;;;1.63;;
71095;SDS011;58753;49.440;11.126;2022-07-30T17:42:39;3.60;;;1.97;;
71095;SDS011;58753;49.440;11.126;2022-07-30T17:45:08;4.03;;;1.95;;
71095;SDS011;58753;49.440;11.126;2022-07-30T17:47:34;3.67;;;1.83;;
71095;SDS011;58753;49.440;11.126;2022-07-30T17:49:59;2.80;;;1.93;;
71095;SDS011;58753;49.440;11.126;2022-07-30T17:52:25;3.63;;;2.13;;
71095;SDS011;58753;49.440;11.126;2022-07-30T17:54:50;3.60;;;1.90;;
71095;SDS011;58753;49.440;11.126;2022-07-30T17:57:16;3.50;;;2.03;;
71095;SDS011;58753;49.440;11.126;2022-07-30T18:05:18;2.57;;;1.80;;
71095;SDS011;58753;49.440;11.126;2022-07-30T18:07:44;2.80;;;2.03;;
71095;SDS011;58753;49.440;11.126;2022-07-30T18:10:10;6.10;;;2.17;;
71095;SDS011;58753;49.440;11.126;2022-07-30T18:17:58;3.72;;;1.88;;
71095;SDS011;58753;49.440;11.126;2022-07-30T18:20:26;4.00;;;2.10;;
71095;SDS011;58753;49.440;11.126;2022-07-30T18:22:51;5.17;;;2.00;;
71095;SDS011;58753;49.440;11.126;2022-07-30T18:25:17;3.28;;;1.80;;
71095;SDS011;58753;49.440;11.126;2022-07-30T18:27:42;5.07;;;2.23;;
71095;SDS011;58753;49.440;11.126;2022-07-30T18:30:08;3.57;;;1.80;;
71095;SDS011;58753;49.440;11.126;2022-07-30T18:37:34;2.95;;;1.80;;
71095;SDS011;58753;49.440;11.126;2022-07-30T18:39:59;3.17;;;1.65;;
71095;SDS011;58753;49.440;11.126;2022-07-30T18:42:25;3.00;;;1.80;;
71095;SDS011;58753;49.440;11.126;2022-07-30T18:44:50;3.07;;;1.90;;
71095;SDS011;58753;49.440;11.126;2022-07-30T18:47:16;4.10;;;1.97;;
71095;SDS011;58753;49.440;11.126;2022-07-30T18:49:42;3.27;;;2.10;;
71095;SDS011;58753;49.440;11.126;2022-07-30T18:52:08;3.22;;;1.65;;
71095;SDS011;58753;49.440;11.126;2022-07-30T18:54:34;2.65;;;1.85;;
71095;SDS011;58753;49.440;11.126;2022-07-30T18:57:00;2.67;;;1.47;;
71095;SDS011;58753;49.440;11.126;2022-07-30T18:59:25;3.60;;;1.47;;
71095;SDS011;58753;49.440;11.126;2022-07-30T19:01:51;3.80;;;1.93;;
71095;SDS011;58753;49.440;11.126;2022-07-30T19:04:16;2.75;;;1.70;;
71095;SDS011;58753;49.440;11.126;2022-07-30T19:06:42;2.87;;;1.57;;
71095;SDS011;58753;49.440;11.126;2022-07-30T19:09:07;4.20;;;2.10;;
71095;SDS011;58753;49.440;11.126;2022-07-30T19:11:36;2.75;;;1.60;;
71095;SDS011;58753;49.440;11.126;2022-07-30T19:14:03;3.75;;;1.90;;
71095;SDS011;58753;49.440;11.126;2022-07-30T19:16:29;3.10;;;1.83;;
71095;SDS011;58753;49.440;11.126;2022-07-30T19:18:54;2.90;;;1.60;;
71095;SDS011;58753;49.440;11.126;2022-07-30T19:21:20;3.13;;;1.80;;
71095;SDS011;58753;49.440;11.126;2022-07-30T19:23:45;3.40;;;1.73;;
71095;SDS011;58753;49.440;11.126;2022-07-30T19:26:10;4.20;;;2.40;;
71095;SDS011;58753;49.440;11.126;2022-07-30T19:28:37;3.70;;;1.90;;
71095;SDS011;58753;49.440;11.126;2022-07-30T19:31:03;3.55;;;1.90;;
71095;SDS011;58753;49.440;11.126;2022-07-30T19:33:29;4.13;;;2.20;;
71095;SDS011;58753;49.440;11.126;2022-07-30T19:35:55;3.95;;;2.90;;
71095;SDS011;58753;49.440;11.126;2022-07-30T19:38:20;4.03;;;2.23;;
71095;SDS011;58753;49.440;11.126;2022-07-30T19:40:45;3.80;;;2.13;;
71095;SDS011;58753;49.440;11.126;2022-07-30T19:43:11;4.40;;;2.27;;
71095;SDS011;58753;49.440;11.126;2022-07-30T19:45:36;3.97;;;2.27;;
71095;SDS011;58753;49.440;11.126;2022-07-30T19:48:03;3.55;;;1.83;;
71095;SDS011;58753;49.440;11.126;2022-07-30T19:50:29;3.80;;;2.20;;
71095;SDS011;58753;49.440;11.126;2022-07-30T19:52:54;3.60;;;2.20;;
71095;SDS011;58753;49.440;11.126;2022-07-30T19:55:20;3.50;;;2.03;;
71095;SDS011;58753;49.440;11.126;2022-07-30T19:57:45;4.30;;;2.43;;
71095;SDS011;58753;49.440;11.126;2022-07-30T20:08:31;4.63;;;2.47;;
71095;SDS011;58753;49.440;11.126;2022-07-30T20:10:57;6.10;;;2.90;;
71095;SDS011;58753;49.440;11.126;2022-07-30T20:13:23;4.93;;;2.72;;
71095;SDS011;58753;49.440;11.126;2022-07-30T20:15:49;4.82;;;2.42;;
71095;SDS011;58753;49.440;11.126;2022-07-30T20:18:16;4.60;;;2.78;;
71095;SDS011;58753;49.440;11.126;2022-07-30T20:20:41;3.83;;;2.30;;
71095;SDS011;58753;49.440;11.126;2022-07-30T20:23:07;4.03;;;2.63;;
71095;SDS011;58753;49.440;11.126;2022-07-30T20:25:32;5.03;;;2.80;;
71095;SDS011;58753;49.440;11.126;2022-07-30T20:27:58;3.77;;;2.87;;
71095;SDS011;58753;49.440;11.126;2022-07-30T20:30:23;4.67;;;2.53;;
71095;SDS011;58753;49.440;11.126;2022-07-30T20:32:48;4.80;;;3.23;;
71095;SDS011;58753;49.440;11.126;2022-07-30T20:37:39;4.57;;;2.70;;
71095;SDS011;58753;49.440;11.126;2022-07-30T20:40:04;4.30;;;2.90;;
71095;SDS011;58753;49.440;11.126;2022-07-30T20:42:31;4.65;;;2.60;;
71095;SDS011;58753;49.440;11.126;2022-07-30T20:44:56;4.93;;;2.97;;
71095;SDS011;58753;49.440;11.126;2022-07-30T20:47:22;6.07;;;3.78;;
71095;SDS011;58753;49.440;11.126;2022-07-30T20:49:47;8.20;;;4.43;;
71095;SDS011;58753;49.440;11.126;2022-07-30T20:52:13;8.47;;;4.80;;
71095;SDS011;58753;49.440;11.126;2022-07-30T20:54:39;5.40;;;3.67;;
71095;SDS011;58753;49.440;11.126;2022-07-30T20:57:05;6.65;;;3.38;;
71095;SDS011;58753;49.440;11.126;2022-07-30T21:06:31;5.28;;;2.83;;
71095;SDS011;58753;49.440;11.126;2022-07-30T21:08:56;4.63;;;2.60;;
71095;SDS011;58753;49.440;11.126;2022-07-30T21:11:22;5.13;;;2.40;;
71095;SDS011;58753;49.440;11.126;2022-07-30T21:13:49;4.50;;;2.50;;